createdAt,value
2018-08-03T00:03:00.914Z,23.34
2018-08-03T00:07:53.922Z,23.32
2018-08-03T00:12:46.903Z,23.34
2018-08-03T00:17:41.219Z,23.16
2018-08-03T00:22:34.811Z,23.07
2018-08-03T00:27:27.826Z,22.94
2018-08-03T00:32:20.889Z,22.96
2018-08-03T00:37:14.181Z,22.74
2018-08-03T00:42:07.157Z,22.92
2018-08-03T00:47:00.163Z,22.89
2018-08-03T00:51:53.270Z,22.71
2018-08-03T00:56:46.337Z,22.84
2018-08-03T01:01:39.377Z,22.81
2018-08-03T01:06:32.349Z,22.73
2018-08-03T01:11:25.512Z,23.08
2018-08-03T01:16:18.683Z,23.10
2018-08-03T01:21:11.663Z,23.16
2018-08-03T01:26:04.613Z,23.35
2018-08-03T01:30:57.544Z,23.25
2018-08-03T01:35:50.530Z,23.25
2018-08-03T01:40:43.541Z,23.31
2018-08-03T01:45:37.194Z,23.36
2018-08-03T01:50:31.234Z,23.71
2018-08-03T01:55:24.278Z,23.82
2018-08-03T02:00:17.343Z,23.87
2018-08-03T02:05:10.427Z,23.82
2018-08-03T02:10:03.622Z,23.95
2018-08-03T02:14:56.725Z,23.82
2018-08-03T02:19:49.690Z,23.70
2018-08-03T02:24:42.658Z,23.67
2018-08-03T02:29:35.595Z,23.71
2018-08-03T02:34:28.595Z,23.68
2018-08-03T02:39:21.660Z,23.50
2018-08-03T02:44:14.737Z,23.48
2018-08-03T02:49:07.940Z,23.56
2018-08-03T02:54:01.589Z,23.40
2018-08-03T02:58:54.558Z,23.52
2018-08-03T03:03:47.702Z,23.59
2018-08-03T03:08:40.765Z,23.40
2018-08-03T03:13:33.768Z,23.39
2018-08-03T03:18:27.098Z,23.10
2018-08-03T03:23:20.222Z,22.49
2018-08-03T03:28:13.153Z,22.35
2018-08-03T03:33:06.247Z,22.02
2018-08-03T03:37:59.205Z,22.08
2018-08-03T03:42:52.692Z,21.87
2018-08-03T03:47:45.619Z,21.74
2018-08-03T03:52:38.587Z,21.97
2018-08-03T03:57:31.736Z,21.83
2018-08-03T04:02:25.113Z,22.27
2018-08-03T04:07:18.315Z,22.26
2018-08-03T04:12:11.466Z,22.32
2018-08-03T04:17:04.499Z,22.60
2018-08-03T04:21:57.922Z,22.88
2018-08-03T04:26:50.979Z,22.98
2018-08-03T04:31:44.116Z,23.19
2018-08-03T04:36:37.566Z,23.31
2018-08-03T04:41:31.724Z,23.53
2018-08-03T04:46:24.728Z,23.82
2018-08-03T04:51:17.874Z,23.93
2018-08-03T04:56:10.828Z,24.10
2018-08-03T05:01:03.975Z,24.15
2018-08-03T05:05:57.127Z,24.29
2018-08-03T05:10:50.162Z,24.32
2018-08-03T05:15:43.405Z,24.39
2018-08-03T05:20:36.402Z,24.45
2018-08-03T05:25:29.313Z,24.49
2018-08-03T05:30:22.438Z,24.57
2018-08-03T05:35:15.644Z,24.54
2018-08-03T05:40:08.823Z,24.47
2018-08-03T05:45:02.019Z,24.50
2018-08-03T05:49:55.152Z,24.50
2018-08-03T05:54:48.302Z,24.65
2018-08-03T05:59:41.624Z,24.74
2018-08-03T06:04:34.744Z,24.76
2018-08-03T06:09:27.867Z,24.84
2018-08-03T06:14:20.858Z,24.99
2018-08-03T06:19:13.872Z,25.10
2018-08-03T06:24:07.213Z,25.27
2018-08-03T06:29:00.552Z,25.41
2018-08-03T06:33:53.589Z,25.53
2018-08-03T06:38:46.631Z,25.68
2018-08-03T06:43:39.730Z,25.82
2018-08-03T06:48:33.744Z,25.80
2018-08-03T06:53:26.892Z,25.86
2018-08-03T06:58:19.864Z,25.78
2018-08-03T07:03:12.837Z,25.92
2018-08-03T07:08:05.976Z,26.15
2018-08-03T07:17:57.064Z,26.25
2018-08-03T07:22:50.268Z,26.33
2018-08-03T07:27:43.412Z,26.50
2018-08-03T07:32:38.971Z,26.47
2018-08-03T07:37:31.947Z,26.65
2018-08-03T07:42:24.994Z,26.56
2018-08-03T07:47:18.560Z,26.55
2018-08-03T07:52:12.146Z,26.59
2018-08-03T07:57:05.270Z,26.84
2018-08-03T08:01:59.643Z,26.92
2018-08-03T08:06:53.296Z,27.08
2018-08-03T08:11:46.375Z,27.07
2018-08-03T08:16:39.337Z,27.07
2018-08-03T08:21:32.610Z,27.34
2018-08-03T08:26:25.565Z,27.23
2018-08-03T08:31:19.188Z,27.36
2018-08-03T08:36:14.306Z,27.22
2018-08-03T08:41:07.346Z,27.49
2018-08-03T08:46:00.349Z,27.42
2018-08-03T08:50:53.893Z,27.51
2018-08-03T08:55:47.813Z,27.69
2018-08-03T09:00:40.904Z,27.66
2018-08-03T09:05:34.012Z,27.83
2018-08-03T09:10:26.920Z,27.66
2018-08-03T09:15:19.927Z,27.71
2018-08-03T09:20:12.855Z,27.93
2018-08-03T09:25:06.192Z,27.97
2018-08-03T09:29:59.831Z,27.86
2018-08-03T09:34:52.902Z,27.97
2018-08-03T09:39:46.040Z,28.08
2018-08-03T09:44:39.295Z,28.33
2018-08-03T09:49:32.327Z,28.30
2018-08-03T09:54:25.441Z,28.35
2018-08-03T09:59:18.634Z,28.26
2018-08-03T10:04:11.730Z,28.37
2018-08-03T10:09:06.508Z,28.52
2018-08-03T10:13:59.509Z,28.27
2018-08-03T10:18:53.281Z,28.40
2018-08-03T10:23:46.870Z,28.50
2018-08-03T10:28:39.916Z,28.62
2018-08-03T10:33:32.893Z,28.41
2018-08-03T10:38:26.759Z,28.46
2018-08-03T10:43:19.818Z,28.65
2018-08-03T10:48:13.247Z,28.49
2018-08-03T10:53:06.655Z,28.54
2018-08-03T10:57:59.667Z,28.49
2018-08-03T11:02:53.543Z,28.41
2018-08-03T11:07:48.504Z,28.71
2018-08-03T11:12:42.429Z,28.93
2018-08-03T11:17:36.322Z,28.87
2018-08-03T11:22:30.381Z,28.65
2018-08-03T11:27:24.227Z,28.72
2018-08-03T11:32:17.778Z,28.72
2018-08-03T11:37:10.712Z,28.77
2018-08-03T11:42:03.927Z,28.92
2018-08-03T11:46:57.165Z,29.04
2018-08-03T11:51:50.360Z,28.83
2018-08-03T11:56:43.916Z,28.88
2018-08-03T12:01:37.752Z,29.06
2018-08-03T12:06:31.083Z,28.86
2018-08-03T12:11:24.283Z,28.86
2018-08-03T12:16:17.709Z,28.84
2018-08-03T12:21:10.697Z,29.08
2018-08-03T12:26:03.689Z,28.88
2018-08-03T12:30:59.145Z,29.09
2018-08-03T12:35:52.234Z,29.22
2018-08-03T12:40:45.412Z,29.30
2018-08-03T12:45:38.528Z,29.71
2018-08-03T12:50:32.505Z,29.75
2018-08-03T12:55:25.731Z,29.50
2018-08-03T13:00:18.715Z,29.52
2018-08-03T13:05:11.965Z,29.40
2018-08-03T13:10:06.441Z,29.75
2018-08-03T13:14:59.657Z,29.58
2018-08-03T13:19:54.072Z,29.44
2018-08-03T13:24:47.366Z,28.92
2018-08-03T13:29:40.686Z,28.40
2018-08-03T13:34:33.812Z,27.36
2018-08-03T13:39:27.132Z,25.12
2018-08-03T13:44:20.309Z,24.58
2018-08-03T13:49:13.331Z,24.76
2018-08-03T13:54:06.682Z,25.00
2018-08-03T13:59:01.911Z,24.79
2018-08-03T14:03:55.449Z,24.35
2018-08-03T14:08:49.462Z,24.01
2018-08-03T14:13:42.609Z,24.49
2018-08-03T14:18:35.759Z,24.66
2018-08-03T14:23:29.523Z,24.89
2018-08-03T14:28:22.526Z,24.68
2018-08-03T14:33:15.812Z,23.92
2018-08-03T14:38:08.936Z,23.46
2018-08-03T14:43:02.558Z,23.29
2018-08-03T14:47:55.669Z,23.19
2018-08-03T14:52:48.979Z,23.29
2018-08-03T14:57:42.021Z,23.37
2018-08-03T15:02:35.077Z,23.48
2018-08-03T15:07:28.539Z,23.50
2018-08-03T15:12:21.530Z,23.77
2018-08-03T15:17:14.657Z,23.90
2018-08-03T15:22:07.645Z,23.95
2018-08-03T15:27:01.723Z,24.14
2018-08-03T15:31:54.842Z,24.21
2018-08-03T15:36:55.402Z,24.10
2018-08-03T15:41:50.396Z,24.08
2018-08-03T15:46:44.206Z,23.99
2018-08-03T15:51:37.134Z,23.85
2018-08-03T15:56:30.539Z,23.70
2018-08-03T16:01:23.535Z,23.42
2018-08-03T16:06:16.693Z,23.31
2018-08-03T16:11:09.700Z,23.27
2018-08-03T16:16:02.943Z,23.10
2018-08-03T16:20:56.248Z,23.29
2018-08-03T16:25:49.474Z,23.61
2018-08-03T16:30:42.915Z,23.59
2018-08-03T16:35:36.201Z,23.64
2018-08-03T16:40:29.394Z,23.53
2018-08-03T16:45:22.538Z,23.47
2018-08-03T16:50:15.751Z,23.71
2018-08-03T16:55:08.799Z,23.87
2018-08-03T17:00:01.835Z,23.98
2018-08-03T17:04:54.928Z,23.92
2018-08-03T17:09:47.983Z,23.74
2018-08-03T17:14:41.174Z,23.82
2018-08-03T17:19:34.258Z,23.88
2018-08-03T17:24:27.184Z,23.89
2018-08-03T17:29:20.282Z,23.90
2018-08-03T17:34:13.386Z,24.06
2018-08-03T17:39:09.322Z,24.05
2018-08-03T17:44:02.553Z,24.02
2018-08-03T17:48:55.584Z,24.03
2018-08-03T17:53:48.682Z,23.91
2018-08-03T17:58:41.940Z,23.82
2018-08-03T18:03:35.555Z,23.89
2018-08-03T18:08:28.657Z,23.81
2018-08-03T18:13:21.744Z,23.95
2018-08-03T18:18:14.802Z,23.97
2018-08-03T18:23:07.940Z,23.99
2018-08-03T18:28:00.987Z,23.93
2018-08-03T18:32:54.022Z,23.89
2018-08-03T18:37:47.108Z,23.95
2018-08-03T18:42:40.977Z,24.07
2018-08-03T18:47:34.111Z,24.01
2018-08-03T18:52:42.984Z,23.87
2018-08-03T19:10:37.037Z,24.00
2018-08-03T19:15:30.508Z,23.76
2018-08-03T19:20:23.535Z,23.53
2018-08-03T19:25:16.747Z,23.48
2018-08-03T19:30:09.850Z,23.34
2018-08-03T19:35:02.967Z,23.15
2018-08-03T19:39:56.128Z,23.16
2018-08-03T19:44:49.279Z,23.06
2018-08-03T19:49:42.383Z,22.94
2018-08-03T19:54:35.370Z,23.00
2018-08-03T19:59:28.618Z,22.79
2018-08-03T20:04:21.711Z,22.71
2018-08-03T20:09:15.209Z,22.75
2018-08-03T20:14:08.173Z,22.78
2018-08-03T20:19:02.819Z,22.42
2018-08-03T20:23:55.785Z,22.31
2018-08-03T20:28:48.796Z,22.06
2018-08-03T20:33:41.924Z,21.90
2018-08-03T20:38:34.884Z,21.84
2018-08-03T20:43:27.970Z,21.74
2018-08-03T20:48:20.921Z,21.50
2018-08-03T20:53:13.893Z,21.66
2018-08-03T20:58:06.813Z,21.77
2018-08-03T21:02:59.886Z,21.66
2018-08-03T21:07:52.942Z,21.57
2018-08-03T21:12:45.878Z,21.71
2018-08-03T21:17:38.935Z,21.69
2018-08-03T21:22:32.154Z,21.83
2018-08-03T21:27:25.417Z,22.13
2018-08-03T21:32:18.361Z,22.28
2018-08-03T21:37:11.703Z,22.43
2018-08-03T21:42:05.058Z,22.80
2018-08-03T21:46:58.219Z,22.76
2018-08-03T21:51:51.244Z,23.15
2018-08-03T21:56:44.257Z,23.36
2018-08-03T22:01:37.428Z,22.92
2018-08-03T22:06:30.521Z,22.16
2018-08-03T22:11:23.486Z,22.39
2018-08-03T22:16:16.470Z,21.88
2018-08-03T22:21:09.497Z,21.55
2018-08-03T22:26:02.589Z,22.37
2018-08-03T22:30:55.518Z,22.50
2018-08-03T22:35:48.509Z,22.42
2018-08-03T22:40:41.412Z,23.29
2018-08-03T22:45:34.333Z,23.42
2018-08-03T22:50:27.460Z,23.59
2018-08-03T22:55:20.459Z,23.69
2018-08-03T23:00:13.534Z,23.65
2018-08-03T23:05:06.702Z,23.76
2018-08-03T23:10:00.296Z,23.72
2018-08-03T23:14:53.376Z,23.72
2018-08-03T23:19:46.364Z,23.82
2018-08-03T23:24:39.487Z,23.73
2018-08-03T23:29:32.392Z,23.69
2018-08-03T23:34:25.612Z,23.61
2018-08-03T23:39:18.818Z,23.77
2018-08-03T23:44:11.808Z,23.70
2018-08-03T23:49:04.996Z,23.74
2018-08-03T23:53:58.023Z,23.77
2018-08-03T23:58:51.174Z,23.71
